Terminal Aerodrome Forecast
Issued by NWS Sioux Falls, SD

Home | Current Version | Previous Version | Graphics & Text | Print | Product List | Glossary On
Versions: 1 2 3 4 5 6 7 8 9 10 11 12 13 14 15 16 17 18 19 20 21 22 23 24 25 26 27 28 29 30 31 32
000
FTUS43 KFSD 201727
TAFSUX
TAF
KSUX 201727Z 2018/2118 08006KT P6SM SCT250
     FM210500 11008KT P6SM BKN200
     FM210900 13007KT P6SM BKN150 WS014/21040KT
     FM211300 16008KT P6SM BKN200 WS014/22035KT
     FM211400 17009KT P6SM SCT200=

USA.gov is the U.S. government's official web portal to all federal, state and local government web resources and services.